SAM136 KADW-KHST
Flight info
| Callsign | SAM136 |
|---|---|
| Flight time | N/A |
| Altitude | 34000 |
| Route | COLIN SCOOB PAACK Q97 YURCK WOPNR XPRSO RECEK CSTAL BNFSH |
| Aircraft | B737/M-SDE2E3FGHIRWXY/LB1 |
Departure
| Time | 2026-04-26 23:04 |
|---|---|
| Airport | Joint Base Andrews (KADW) |
Arrival
| Time | N/A |
|---|---|
| Airport | Homestead Air Reserve Base (KHST) |
| Time | Latitude | Longitude | Altitude | Speed | Heading |
|---|---|---|---|---|---|
| 2026-04-26 22:40 | 38.80676 | -76.87654 | 275 ft | 0 kts | 2° |
| 2026-04-26 22:58 | 38.80679 | -76.87654 | 275 ft | 4 kts | 2° |
| 2026-04-26 22:58 | 38.80721 | -76.87645 | 277 ft | 7 kts | 35° |
| 2026-04-26 22:58 | 38.80736 | -76.87585 | 274 ft | 7 kts | 86° |
| 2026-04-26 22:59 | 38.80738 | -76.87522 | 274 ft | 7 kts | 87° |
| 2026-04-26 22:59 | 38.80728 | -76.87463 | 275 ft | 8 kts | 134° |
| 2026-04-26 22:59 | 38.80679 | -76.87434 | 277 ft | 8 kts | 182° |
| 2026-04-26 22:59 | 38.80623 | -76.87436 | 277 ft | 8 kts | 182° |
| 2026-04-26 23:00 | 38.80568 | -76.87439 | 275 ft | 8 kts | 182° |
| 2026-04-26 23:00 | 38.80516 | -76.87441 | 276 ft | 7 kts | 182° |
| 2026-04-26 23:00 | 38.80462 | -76.87444 | 278 ft | 8 kts | 182° |
| 2026-04-26 23:00 | 38.80405 | -76.87447 | 276 ft | 8 kts | 182° |
| 2026-04-26 23:01 | 38.80343 | -76.87448 | 273 ft | 11 kts | 174° |
| 2026-04-26 23:01 | 38.80264 | -76.87440 | 273 ft | 11 kts | 176° |
| 2026-04-26 23:01 | 38.80186 | -76.87435 | 277 ft | 11 kts | 180° |
| 2026-04-26 23:01 | 38.80108 | -76.87436 | 272 ft | 11 kts | 180° |
| 2026-04-26 23:02 | 38.80032 | -76.87436 | 274 ft | 11 kts | 180° |
| 2026-04-26 23:02 | 38.79958 | -76.87437 | 271 ft | 11 kts | 180° |
| 2026-04-26 23:02 | 38.79871 | -76.87439 | 268 ft | 14 kts | 181° |
| 2026-04-26 23:02 | 38.79793 | -76.87388 | 268 ft | 13 kts | 109° |
| 2026-04-26 23:03 | 38.79793 | -76.87274 | 268 ft | 13 kts | 90° |
| 2026-04-26 23:03 | 38.79789 | -76.87162 | 268 ft | 12 kts | 95° |
| 2026-04-26 23:03 | 38.79822 | -76.87070 | 267 ft | 18 kts | 14° |
| 2026-04-26 23:03 | 38.80150 | -76.87066 | 268 ft | 92 kts | 359° |
| 2026-04-26 23:04 | 38.81067 | -76.87078 | 374 ft | 165 kts | 360° |
| 2026-04-26 23:04 | 38.82232 | -76.87074 | 1458 ft | 167 kts | 9° |
| 2026-04-26 23:04 | 38.83314 | -76.86481 | 2307 ft | 178 kts | 37° |
| 2026-04-26 23:04 | 38.84305 | -76.85536 | 2872 ft | 175 kts | 38° |
| 2026-04-26 23:05 | 38.85255 | -76.84558 | 2956 ft | 177 kts | 39° |
| 2026-04-26 23:05 | 38.86198 | -76.83519 | 3001 ft | 186 kts | 47° |
| 2026-04-26 23:05 | 38.86698 | -76.81831 | 3025 ft | 224 kts | 88° |
| 2026-04-26 23:05 | 38.86128 | -76.79925 | 3014 ft | 240 kts | 129° |
| 2026-04-26 23:06 | 38.84704 | -76.78758 | 3051 ft | 249 kts | 155° |
| 2026-04-26 23:06 | 38.82993 | -76.78225 | 3582 ft | 256 kts | 169° |
| 2026-04-26 23:06 | 38.81199 | -76.77953 | 4330 ft | 269 kts | 172° |
| 2026-04-26 23:06 | 38.79298 | -76.77703 | 5143 ft | 279 kts | 172° |
| 2026-04-26 23:07 | 38.77351 | -76.77441 | 6166 ft | 282 kts | 171° |
| 2026-04-26 23:07 | 38.76046 | -76.77255 | 6823 ft | 286 kts | 171° |
| 2026-04-26 23:07 | 38.73366 | -76.76853 | 8089 ft | 293 kts | 171° |
| 2026-04-26 23:07 | 38.71324 | -76.76534 | 9031 ft | 298 kts | 171° |
| 2026-04-26 23:08 | 38.69243 | -76.76201 | 9932 ft | 304 kts | 171° |
| 2026-04-26 23:08 | 38.67139 | -76.75858 | 10616 ft | 318 kts | 172° |
| 2026-04-26 23:08 | 38.64849 | -76.75481 | 10866 ft | 346 kts | 172° |
| 2026-04-26 23:08 | 38.62356 | -76.75069 | 11129 ft | 372 kts | 172° |
| 2026-04-26 23:09 | 38.59746 | -76.74640 | 11766 ft | 383 kts | 173° |
| 2026-04-26 23:09 | 38.57078 | -76.74259 | 12620 ft | 386 kts | 174° |
| 2026-04-26 23:09 | 38.54388 | -76.73900 | 13425 ft | 391 kts | 174° |
| 2026-04-26 23:09 | 38.51663 | -76.73514 | 14197 ft | 397 kts | 174° |
| 2026-04-26 23:10 | 38.48896 | -76.73090 | 14897 ft | 404 kts | 173° |
| 2026-04-26 23:10 | 38.46083 | -76.72631 | 15691 ft | 408 kts | 173° |
| 2026-04-26 23:10 | 38.43282 | -76.72155 | 16419 ft | 413 kts | 173° |
| 2026-04-26 23:10 | 38.40409 | -76.71659 | 17095 ft | 419 kts | 173° |
| 2026-04-26 23:11 | 38.37502 | -76.71153 | 17746 ft | 425 kts | 173° |
| 2026-04-26 23:11 | 38.34550 | -76.70639 | 18386 ft | 431 kts | 173° |
| 2026-04-26 23:11 | 38.32571 | -76.70295 | 18834 ft | 434 kts | 173° |
| 2026-04-26 23:11 | 38.29533 | -76.69769 | 19576 ft | 435 kts | 173° |
| 2026-04-26 23:12 | 38.26528 | -76.69249 | 20299 ft | 437 kts | 173° |
| 2026-04-26 23:12 | 38.23537 | -76.68732 | 20938 ft | 441 kts | 173° |
| 2026-04-26 23:12 | 38.20479 | -76.68204 | 21552 ft | 445 kts | 173° |
| 2026-04-26 23:12 | 38.16368 | -76.67495 | 22389 ft | 448 kts | 173° |
| 2026-04-26 23:13 | 38.14317 | -76.67142 | 22788 ft | 450 kts | 173° |
| 2026-04-26 23:13 | 38.11197 | -76.66606 | 23339 ft | 454 kts | 173° |
| 2026-04-26 23:13 | 38.08048 | -76.66129 | 23846 ft | 457 kts | 175° |
| 2026-04-26 23:13 | 38.04867 | -76.65828 | 24375 ft | 460 kts | 178° |
| 2026-04-26 23:14 | 38.01660 | -76.65644 | 24903 ft | 462 kts | 179° |
| 2026-04-26 23:14 | 37.98432 | -76.65502 | 25477 ft | 463 kts | 179° |
| 2026-04-26 23:14 | 37.95222 | -76.65354 | 26135 ft | 460 kts | 179° |
| 2026-04-26 23:14 | 37.92062 | -76.65184 | 26713 ft | 460 kts | 179° |
| 2026-04-26 23:15 | 37.88855 | -76.64988 | 27188 ft | 462 kts | 179° |
| 2026-04-26 23:15 | 37.85636 | -76.64775 | 27606 ft | 464 kts | 179° |
| 2026-04-26 23:15 | 37.82401 | -76.64555 | 28037 ft | 466 kts | 179° |
| 2026-04-26 23:15 | 37.79162 | -76.64333 | 28473 ft | 467 kts | 180° |
| 2026-04-26 23:16 | 37.75910 | -76.64112 | 28925 ft | 467 kts | 180° |
| 2026-04-26 23:16 | 37.72655 | -76.63894 | 29375 ft | 467 kts | 180° |
| 2026-04-26 23:16 | 37.69420 | -76.63680 | 29922 ft | 464 kts | 180° |
| 2026-04-26 23:16 | 37.66218 | -76.63465 | 30554 ft | 458 kts | 180° |
| 2026-04-26 23:17 | 37.63055 | -76.63253 | 31158 ft | 453 kts | 180° |
| 2026-04-26 23:17 | 37.59971 | -76.63173 | 31802 ft | 443 kts | 186° |
| 2026-04-26 23:17 | 37.56982 | -76.63730 | 32411 ft | 429 kts | 200° |
| 2026-04-26 23:17 | 37.54185 | -76.64963 | 32973 ft | 422 kts | 204° |
| 2026-04-26 23:18 | 37.51457 | -76.66284 | 33483 ft | 418 kts | 203° |
| 2026-04-26 23:18 | 37.48711 | -76.67469 | 33927 ft | 416 kts | 200° |
| 2026-04-26 23:18 | 37.45931 | -76.68485 | 34178 ft | 417 kts | 199° |
| 2026-04-26 23:19 | 37.40324 | -76.70424 | 34182 ft | 418 kts | 198° |